Time;durP1;ratioP1;P1;durP2;ratioP2;P2;SDS_P1;SDS_P2;PMS_P1;PMS_P2;Temp;Humidity;BMP_temperature;BMP_pressure;BME280_temperature;BME280_humidity;BME280_pressure;Samples;Min_cycle;Max_cycle;Signal;HPM_P1;HPM_P2
2023/11/04 00:02:37;;;;;;;4.07;2.13;;;;;;;;;;4896873;29;20204;-90
2023/11/04 00:05:41;;;;;;;3.00;1.83;;;;;;;;;;4907768;29;20181;-90
2023/11/04 00:08:45;;;;;;;2.10;1.63;;;;;;;;;;4907540;29;20192;-90
2023/11/04 00:11:50;;;;;;;2.20;1.60;;;;;;;;;;4896967;29;20189;-91
2023/11/04 00:14:54;;;;;;;1.83;1.60;;;;;;;;;;4907664;29;20197;-91
2023/11/04 00:17:58;;;;;;;1.93;1.73;;;;;;;;;;4896302;29;20228;-90
2023/11/04 00:21:03;;;;;;;3.30;1.67;;;;;;;;;;4907749;29;20193;-90
2023/11/04 00:24:09;;;;;;;3.63;1.50;;;;;;;;;;4907200;29;20189;-90
2023/11/04 00:27:14;;;;;;;2.83;1.60;;;;;;;;;;4896369;29;20228;-90
2023/11/04 00:30:18;;;;;;;5.67;1.80;;;;;;;;;;4907358;29;20193;-90
2023/11/04 00:33:26;;;;;;;2.77;1.27;;;;;;;;;;4907248;29;20193;-90
2023/11/04 00:36:51;;;;;;;2.37;1.40;;;;;;;;;;4901499;29;20232;-90
2023/11/04 00:40:15;;;;;;;3.33;1.43;;;;;;;;;;4909741;29;20185;-90
2023/11/04 00:43:39;;;;;;;2.13;1.50;;;;;;;;;;4909633;29;20186;-91
2023/11/04 00:47:03;;;;;;;2.07;1.50;;;;;;;;;;4909653;29;20217;-90
2023/11/04 00:50:27;;;;;;;1.70;1.60;;;;;;;;;;4901527;29;20546;-90
2023/11/04 00:53:51;;;;;;;1.73;1.33;;;;;;;;;;4906981;29;20193;-91
2023/11/04 00:57:15;;;;;;;7.53;1.60;;;;;;;;;;4906545;29;20236;-91
2023/11/04 01:00:39;;;;;;;1.60;1.50;;;;;;;;;;4907090;29;20214;-91
2023/11/04 01:04:03;;;;;;;3.30;1.47;;;;;;;;;;4909373;29;20189;-90
2023/11/04 01:07:28;;;;;;;3.37;1.57;;;;;;;;;;4917425;29;20216;-90
2023/11/04 01:10:52;;;;;;;2.23;1.40;;;;;;;;;;4906613;29;20185;-90
2023/11/04 01:14:16;;;;;;;1.87;1.40;;;;;;;;;;4900925;29;20185;-90
2023/11/04 01:17:40;;;;;;;1.90;1.33;;;;;;;;;;4900852;29;20232;-90
2023/11/04 01:21:04;;;;;;;2.90;1.63;;;;;;;;;;4898907;29;20746;-90
2023/11/04 01:24:28;;;;;;;2.33;1.30;;;;;;;;;;4898383;29;20181;-90
2023/11/04 01:27:53;;;;;;;1.50;1.40;;;;;;;;;;4897843;29;20220;-90
2023/11/04 01:31:17;;;;;;;1.63;1.33;;;;;;;;;;4898524;29;20189;-90
2023/11/04 01:34:41;;;;;;;2.33;1.50;;;;;;;;;;4906733;29;20189;-90
2023/11/04 01:38:05;;;;;;;2.40;1.60;;;;;;;;;;4909191;29;20189;-90
2023/11/04 01:41:30;;;;;;;1.27;1.17;;;;;;;;;;4901365;29;20189;-90
2023/11/04 01:44:54;;;;;;;1.30;1.20;;;;;;;;;;4901938;29;20185;-90
2023/11/04 01:48:18;;;;;;;2.80;1.30;;;;;;;;;;4904793;29;20185;-90
2023/11/04 01:51:42;;;;;;;2.33;1.30;;;;;;;;;;4905122;29;20189;-90
2023/11/04 01:55:08;;;;;;;1.67;1.20;;;;;;;;;;4902053;29;20185;-90
2023/11/04 01:58:34;;;;;;;2.70;1.20;;;;;;;;;;4909885;29;20181;-90
2023/11/04 02:01:59;;;;;;;3.47;1.63;;;;;;;;;;4912713;29;20212;-90
2023/11/04 02:05:23;;;;;;;2.33;1.37;;;;;;;;;;4912952;29;20540;-90
2023/11/04 02:08:48;;;;;;;1.40;1.27;;;;;;;;;;4904590;29;20554;-90
2023/11/04 02:12:12;;;;;;;2.27;1.47;;;;;;;;;;4901422;29;20197;-90
2023/11/04 02:15:37;;;;;;;1.90;1.37;;;;;;;;;;4901602;29;20181;-90
2023/11/04 02:19:02;;;;;;;1.63;1.20;;;;;;;;;;4912655;29;20644;-90
2023/11/04 02:22:26;;;;;;;3.60;1.20;;;;;;;;;;4901565;29;20193;-90
2023/11/04 02:25:50;;;;;;;2.07;1.40;;;;;;;;;;4909246;29;20647;-90
2023/11/04 02:29:14;;;;;;;1.73;1.40;;;;;;;;;;4909523;29;20185;-90
2023/11/04 02:32:39;;;;;;;1.83;1.50;;;;;;;;;;4904014;29;20527;-90
2023/11/04 02:36:03;;;;;;;4.13;1.17;;;;;;;;;;4920244;29;20714;-90
2023/11/04 02:39:27;;;;;;;1.93;1.47;;;;;;;;;;4912517;29;20215;-90
2023/11/04 02:42:51;;;;;;;1.83;1.13;;;;;;;;;;4901783;29;20185;-90
2023/11/04 02:46:16;;;;;;;1.67;1.20;;;;;;;;;;4909504;29;20224;-90
2023/11/04 02:49:40;;;;;;;3.50;1.30;;;;;;;;;;4909427;29;20189;-91
2023/11/04 02:53:04;;;;;;;5.03;1.27;;;;;;;;;;4908875;29;20194;-90
2023/11/04 02:56:28;;;;;;;1.30;1.13;;;;;;;;;;4908932;29;20240;-90
2023/11/04 02:59:52;;;;;;;1.20;1.10;;;;;;;;;;4908968;29;20194;-90
2023/11/04 03:03:16;;;;;;;3.83;1.20;;;;;;;;;;4903397;29;20682;-91
2023/11/04 03:06:40;;;;;;;2.03;1.10;;;;;;;;;;4903175;29;20224;-90
2023/11/04 03:10:05;;;;;;;2.47;1.07;;;;;;;;;;4908787;29;20189;-90
2023/11/04 03:13:29;;;;;;;4.80;1.10;;;;;;;;;;4919672;29;20197;-90
2023/11/04 03:16:53;;;;;;;1.10;1.00;;;;;;;;;;4919537;29;20233;-91
2023/11/04 03:20:17;;;;;;;2.23;1.17;;;;;;;;;;4900216;29;20189;-90
2023/11/04 03:23:43;;;;;;;2.43;1.10;;;;;;;;;;4900514;29;20185;-90
2023/11/04 03:27:07;;;;;;;3.17;1.67;;;;;;;;;;4902924;29;20217;-90
2023/11/04 03:30:34;;;;;;;2.10;1.00;;;;;;;;;;4911106;29;20532;-91
2023/11/04 03:33:58;;;;;;;1.50;1.20;;;;;;;;;;4908539;29;20646;-90
2023/11/04 03:37:23;;;;;;;1.87;1.20;;;;;;;;;;4910749;29;20228;-90
2023/11/04 03:40:47;;;;;;;2.23;1.20;;;;;;;;;;4899862;29;20193;-90
2023/11/04 03:44:11;;;;;;;4.80;1.50;;;;;;;;;;4908052;29;20193;-90
2023/11/04 03:47:35;;;;;;;1.27;1.17;;;;;;;;;;4894371;29;20220;-90
2023/11/04 03:50:59;;;;;;;2.80;1.50;;;;;;;;;;4907660;29;20199;-90
2023/11/04 03:54:23;;;;;;;1.10;1.00;;;;;;;;;;4907869;29;20189;-90
2023/11/04 03:57:47;;;;;;;1.47;1.30;;;;;;;;;;4899370;29;20228;-90
2023/11/04 04:01:11;;;;;;;1.43;1.27;;;;;;;;;;4899800;29;20189;-90
2023/11/04 04:04:35;;;;;;;1.73;1.60;;;;;;;;;;4907575;29;20197;-90
2023/11/04 04:07:59;;;;;;;1.20;1.10;;;;;;;;;;4910153;29;20216;-90
2023/11/04 04:11:24;;;;;;;2.60;1.60;;;;;;;;;;4910610;29;20189;-90
2023/11/04 04:14:48;;;;;;;1.30;1.10;;;;;;;;;;4907756;29;20181;-90
2023/11/04 04:18:12;;;;;;;1.50;1.40;;;;;;;;;;4907089;29;20217;-90
2023/11/04 04:21:38;;;;;;;3.27;1.53;;;;;;;;;;4899434;29;20190;-90
2023/11/04 04:25:02;;;;;;;2.17;1.50;;;;;;;;;;4907431;29;20186;-90
2023/11/04 04:28:26;;;;;;;1.80;1.70;;;;;;;;;;4899252;29;20182;-90
2023/11/04 04:31:53;;;;;;;2.80;1.60;;;;;;;;;;4902134;29;20189;-90
2023/11/04 04:35:17;;;;;;;3.13;1.43;;;;;;;;;;4901613;29;20185;-90
2023/11/04 04:38:41;;;;;;;2.07;1.17;;;;;;;;;;4898957;29;20220;-90
2023/11/04 04:42:05;;;;;;;1.80;1.37;;;;;;;;;;4907093;29;20185;-91
2023/11/04 04:45:29;;;;;;;1.40;1.20;;;;;;;;;;4898974;29;20647;-90
2023/11/04 04:48:54;;;;;;;2.60;1.53;;;;;;;;;;4906954;29;20644;-90
2023/11/04 05:27:54;;;;;;;3.20;1.23;;;;;;;;;;4840776;29;20233;-89
2023/11/04 05:31:18;;;;;;;3.80;1.10;;;;;;;;;;4892579;29;20185;-89
2023/11/04 05:34:44;;;;;;;1.40;0.97;;;;;;;;;;4908907;29;20197;-89
2023/11/04 05:38:09;;;;;;;1.00;0.90;;;;;;;;;;4897782;29;20212;-89
2023/11/04 05:41:33;;;;;;;1.10;1.00;;;;;;;;;;4908814;29;20663;-89
2023/11/04 05:44:57;;;;;;;1.03;0.90;;;;;;;;;;4898034;29;20184;-89
2023/11/04 05:48:22;;;;;;;1.77;0.90;;;;;;;;;;4900735;29;20193;-89
2023/11/04 05:51:47;;;;;;;1.43;1.10;;;;;;;;;;4901071;29;20197;-89
2023/11/04 05:55:19;;;;;;;1.27;1.10;;;;;;;;;;4897952;29;20194;-88
2023/11/04 05:58:46;;;;;;;3.67;1.10;;;;;;;;;;4905730;29;20220;-89
2023/11/04 06:02:20;;;;;;;1.47;1.10;;;;;;;;;;4901575;29;20197;-89
2023/11/04 06:05:46;;;;;;;1.83;1.20;;;;;;;;;;4916656;29;20189;-89
2023/11/04 06:09:20;;;;;;;1.20;1.03;;;;;;;;;;4908595;29;20643;-89
2023/11/04 06:12:45;;;;;;;0.80;0.80;;;;;;;;;;4906030;29;20185;-88
2023/11/04 06:16:12;;;;;;;1.17;1.07;;;;;;;;;;4901130;29;20225;-85
2023/11/04 06:20:41;;;;;;;1.03;0.90;;;;;;;;;;4905721;29;20524;-89
2023/11/04 06:24:37;;;;;;;1.30;1.03;;;;;;;;;;4916728;29;20189;-89
2023/11/04 06:28:01;;;;;;;1.87;1.07;;;;;;;;;;4900813;29;20559;-88
2023/11/04 06:31:26;;;;;;;1.67;1.00;;;;;;;;;;4909580;29;20181;-89
2023/11/04 06:34:50;;;;;;;1.73;1.17;;;;;;;;;;4909675;29;20646;-88
2023/11/04 06:38:14;;;;;;;6.10;1.10;;;;;;;;;;4909068;29;20209;-88
2023/11/04 06:41:40;;;;;;;1.00;0.90;;;;;;;;;;4920086;29;20193;-88
2023/11/04 06:45:04;;;;;;;3.37;1.10;;;;;;;;;;4909094;29;20542;-89
2023/11/04 06:48:29;;;;;;;1.80;1.00;;;;;;;;;;4900622;29;20181;-89
2023/11/04 06:51:53;;;;;;;1.57;1.20;;;;;;;;;;4911988;29;20189;-88
2023/11/04 06:54:58;;;;;;;0.90;0.80;;;;;;;;;;4908983;29;20189;-89
2023/11/04 06:58:02;;;;;;;3.03;0.90;;;;;;;;;;4898766;29;20555;-88
2023/11/04 07:01:12;;;;;;;1.10;1.00;;;;;;;;;;4909089;29;20197;-88
2023/11/04 07:04:16;;;;;;;1.00;0.90;;;;;;;;;;4908850;29;20531;-89
2023/11/04 07:07:21;;;;;;;1.00;0.90;;;;;;;;;;4908869;29;20595;-89
2023/11/04 07:10:26;;;;;;;0.83;0.83;;;;;;;;;;4897967;29;20184;-89
2023/11/04 07:13:31;;;;;;;1.43;1.17;;;;;;;;;;4908953;29;20196;-89
2023/11/04 07:16:35;;;;;;;1.10;1.00;;;;;;;;;;4908418;29;20224;-88
2023/11/04 07:19:39;;;;;;;1.10;1.00;;;;;;;;;;4908581;29;20173;-88
2023/11/04 07:22:44;;;;;;;2.07;1.30;;;;;;;;;;4898683;29;20189;-89
2023/11/04 07:25:48;;;;;;;1.70;1.10;;;;;;;;;;4898791;29;20201;-89
2023/11/04 07:28:52;;;;;;;2.60;1.00;;;;;;;;;;4899065;29;20220;-89
2023/11/04 07:31:57;;;;;;;1.60;1.07;;;;;;;;;;4899029;29;20185;-88
2023/11/04 07:35:02;;;;;;;1.70;1.40;;;;;;;;;;4898527;29;20189;-89
2023/11/04 07:38:08;;;;;;;1.10;1.00;;;;;;;;;;4898130;29;20220;-89
2023/11/04 07:41:12;;;;;;;1.17;1.03;;;;;;;;;;4910863;29;20658;-89
2023/11/04 07:44:17;;;;;;;1.73;1.10;;;;;;;;;;4899928;29;20193;-89
2023/11/04 07:47:22;;;;;;;1.50;1.03;;;;;;;;;;4911361;29;20224;-89
2023/11/04 07:50:26;;;;;;;1.93;0.87;;;;;;;;;;4903426;29;20185;-89
2023/11/04 07:53:31;;;;;;;1.30;1.17;;;;;;;;;;4902621;29;20635;-88
2023/11/04 07:56:36;;;;;;;1.10;1.00;;;;;;;;;;4897974;29;20232;-89
2023/11/04 08:04:31;;;;;;;2.43;1.10;;;;;;;;;;4919303;29;20542;-89
2023/11/04 08:07:39;;;;;;;1.10;1.00;;;;;;;;;;4907797;29;20229;-88
2023/11/04 08:11:36;;;;;;;1.30;0.90;;;;;;;;;;4911304;29;20205;-90
2023/11/04 08:14:40;;;;;;;1.20;0.90;;;;;;;;;;4896820;29;20185;-89
2023/11/04 08:17:45;;;;;;;1.77;0.90;;;;;;;;;;4897393;29;20233;-90
2023/11/04 08:20:49;;;;;;;2.97;0.90;;;;;;;;;;4897065;29;20189;-91
2023/11/04 08:23:53;;;;;;;1.27;1.03;;;;;;;;;;4896778;29;20180;-92
2023/11/04 08:26:57;;;;;;;1.37;0.90;;;;;;;;;;4885909;29;20683;-91
2023/11/04 08:30:04;;;;;;;1.00;0.90;;;;;;;;;;4918444;29;20204;-91
2023/11/04 08:33:08;;;;;;;2.47;0.90;;;;;;;;;;4907468;29;20188;-91
2023/11/04 08:36:12;;;;;;;0.77;0.70;;;;;;;;;;4907328;29;20232;-92
2023/11/04 08:39:16;;;;;;;1.20;0.80;;;;;;;;;;4885611;29;20212;-92
2023/11/04 08:42:21;;;;;;;0.70;0.67;;;;;;;;;;4906992;29;20193;-91
2023/11/04 08:45:25;;;;;;;0.97;0.70;;;;;;;;;;4907183;29;20185;-91
2023/11/04 08:48:29;;;;;;;2.17;0.90;;;;;;;;;;4896195;29;20185;-91
2023/11/04 08:51:34;;;;;;;0.73;0.70;;;;;;;;;;4906967;29;20189;-91
2023/11/04 08:54:40;;;;;;;1.13;0.83;;;;;;;;;;4896323;29;20185;-92
2023/11/04 08:57:44;;;;;;;1.53;0.70;;;;;;;;;;4917406;29;20228;-91
2023/11/04 09:00:49;;;;;;;1.43;0.70;;;;;;;;;;4896098;29;20192;-91
2023/11/04 09:03:55;;;;;;;1.60;0.70;;;;;;;;;;4906621;29;20185;-91
2023/11/04 09:06:59;;;;;;;0.90;0.70;;;;;;;;;;4918638;29;20224;-91
2023/11/04 09:10:03;;;;;;;1.33;0.70;;;;;;;;;;4917521;29;20185;-90
2023/11/04 09:13:08;;;;;;;0.87;0.53;;;;;;;;;;4917867;29;20300;-91
2023/11/04 09:16:14;;;;;;;0.93;0.60;;;;;;;;;;4906838;29;20224;-93
2023/11/04 09:19:18;;;;;;;0.60;0.60;;;;;;;;;;4906180;29;20213;-89
2023/11/04 09:22:23;;;;;;;0.87;0.70;;;;;;;;;;4906478;29;20197;-88
2023/11/04 09:25:27;;;;;;;0.80;0.70;;;;;;;;;;4905969;29;20189;-89
2023/11/04 09:28:31;;;;;;;0.50;0.50;;;;;;;;;;4895629;29;20185;-89
2023/11/04 09:31:38;;;;;;;1.03;0.57;;;;;;;;;;4906046;29;20184;-89
2023/11/04 09:34:42;;;;;;;0.70;0.60;;;;;;;;;;4895552;29;20185;-89
2023/11/04 09:37:46;;;;;;;1.33;0.43;;;;;;;;;;4905837;29;20224;-89
2023/11/04 09:40:51;;;;;;;0.60;0.50;;;;;;;;;;4895224;29;20185;-89
2023/11/04 09:43:55;;;;;;;0.63;0.50;;;;;;;;;;4905898;29;20536;-89
2023/11/04 09:47:00;;;;;;;0.77;0.50;;;;;;;;;;4906249;29;20232;-89
2023/11/04 09:50:05;;;;;;;0.57;0.50;;;;;;;;;;4917856;29;20185;-89
2023/11/04 09:53:16;;;;;;;0.90;0.50;;;;;;;;;;4895226;29;20193;-90
2023/11/04 09:56:22;;;;;;;0.43;0.30;;;;;;;;;;4916705;29;20229;-91
2023/11/04 09:59:27;;;;;;;0.63;0.43;;;;;;;;;;4917077;29;20209;-91
2023/11/04 10:02:32;;;;;;;0.80;0.50;;;;;;;;;;4920306;29;20189;-91
2023/11/04 10:05:36;;;;;;;0.80;0.60;;;;;;;;;;4909548;29;20192;-91
2023/11/04 10:08:41;;;;;;;1.20;0.60;;;;;;;;;;4898862;29;20193;-91
2023/11/04 10:11:44;;;;;;;0.63;0.50;;;;;;;;;;4909416;29;20189;-90
2023/11/04 10:14:49;;;;;;;0.90;0.50;;;;;;;;;;4920442;29;20189;-90
2023/11/04 10:17:54;;;;;;;0.60;0.40;;;;;;;;;;4898888;29;20323;-91
2023/11/04 10:20:59;;;;;;;1.20;0.47;;;;;;;;;;4898664;29;20189;-91
2023/11/04 10:24:04;;;;;;;1.17;0.40;;;;;;;;;;4909619;29;20189;-90
2023/11/04 10:27:09;;;;;;;0.50;0.40;;;;;;;;;;4920113;29;20598;-91
2023/11/04 10:30:12;;;;;;;1.63;0.50;;;;;;;;;;4920881;29;20547;-91
2023/11/04 10:33:19;;;;;;;1.10;0.50;;;;;;;;;;4920290;29;20192;-91
2023/11/04 10:36:23;;;;;;;0.83;0.47;;;;;;;;;;4898053;29;20216;-91
2023/11/04 10:39:31;;;;;;;0.53;0.50;;;;;;;;;;4908976;29;20280;-91
2023/11/04 10:42:48;;;;;;;0.40;0.40;;;;;;;;;;4898840;29;20194;-91
2023/11/04 10:45:56;;;;;;;0.60;0.47;;;;;;;;;;4908935;29;20189;-90
2023/11/04 10:49:09;;;;;;;0.67;0.50;;;;;;;;;;4919784;29;20181;-91
2023/11/04 10:52:15;;;;;;;0.90;0.50;;;;;;;;;;4898586;29;20185;-91
2023/11/04 10:55:23;;;;;;;1.43;0.70;;;;;;;;;;4919578;29;20193;-91
2023/11/04 10:58:34;;;;;;;0.60;0.50;;;;;;;;;;4909570;29;20560;-90
2023/11/04 11:01:41;;;;;;;0.87;0.70;;;;;;;;;;4923808;29;20193;-90
2023/11/04 11:04:48;;;;;;;1.23;0.67;;;;;;;;;;4909095;29;20189;-91
2023/11/04 11:07:53;;;;;;;0.80;0.70;;;;;;;;;;4919368;29;20224;-89
2023/11/04 11:11:07;;;;;;;2.20;0.80;;;;;;;;;;4908380;29;20185;-89
2023/11/04 11:14:12;;;;;;;1.37;0.73;;;;;;;;;;4908077;29;20635;-89
2023/11/04 11:17:16;;;;;;;1.33;0.67;;;;;;;;;;4908360;29;20563;-90
2023/11/04 11:20:35;;;;;;;1.83;0.60;;;;;;;;;;4908497;29;20213;-90
2023/11/04 11:23:39;;;;;;;0.70;0.60;;;;;;;;;;4919166;29;20193;-90
2023/11/04 11:26:51;;;;;;;0.60;0.60;;;;;;;;;;4920292;29;20228;-91
2023/11/04 11:30:03;;;;;;;0.93;0.50;;;;;;;;;;4909275;29;20205;-91
2023/11/04 11:33:12;;;;;;;0.90;0.73;;;;;;;;;;4908516;29;20189;-91
2023/11/04 11:36:16;;;;;;;0.80;0.60;;;;;;;;;;4908272;29;20225;-91
2023/11/04 11:39:20;;;;;;;0.50;0.50;;;;;;;;;;4918672;29;20212;-90
2023/11/04 11:42:26;;;;;;;2.57;0.50;;;;;;;;;;4918573;29;20197;-91
2023/11/04 11:45:31;;;;;;;0.97;0.60;;;;;;;;;;4908116;29;20189;-91
2023/11/04 11:48:38;;;;;;;0.40;0.40;;;;;;;;;;4907915;29;20185;-91
2023/11/04 11:51:42;;;;;;;0.60;0.60;;;;;;;;;;4918474;29;20196;-91
2023/11/04 11:54:48;;;;;;;0.80;0.60;;;;;;;;;;4907661;29;20544;-91
2023/11/04 11:57:52;;;;;;;0.67;0.53;;;;;;;;;;4907824;29;20220;-91
2023/11/04 12:00:58;;;;;;;0.60;0.43;;;;;;;;;;4918450;29;20184;-91
2023/11/04 12:04:05;;;;;;;0.43;0.43;;;;;;;;;;4907642;29;20185;-91
2023/11/04 12:07:10;;;;;;;0.70;0.47;;;;;;;;;;4918416;29;20228;-91
2023/11/04 12:10:14;;;;;;;1.50;0.60;;;;;;;;;;4907432;29;20188;-90
2023/11/04 12:13:19;;;;;;;0.60;0.57;;;;;;;;;;4907214;29;20184;-91
2023/11/04 12:16:23;;;;;;;0.60;0.50;;;;;;;;;;4918119;29;20701;-90
2023/11/04 12:19:27;;;;;;;1.10;0.60;;;;;;;;;;4896384;29;20204;-90
2023/11/04 12:22:33;;;;;;;0.40;0.40;;;;;;;;;;4896586;29;20185;-91
2023/11/04 12:25:39;;;;;;;1.23;0.60;;;;;;;;;;4906916;29;20185;-90
2023/11/04 12:28:44;;;;;;;0.70;0.60;;;;;;;;;;4906936;29;20193;-90
2023/11/04 12:31:48;;;;;;;0.50;0.50;;;;;;;;;;4907446;29;20193;-90
2023/11/04 12:34:58;;;;;;;0.47;0.40;;;;;;;;;;4918444;29;20188;-91
2023/11/04 12:38:02;;;;;;;2.43;0.40;;;;;;;;;;4918747;29;20209;-90
2023/11/04 12:41:09;;;;;;;1.33;0.60;;;;;;;;;;4906965;29;20678;-91
2023/11/04 12:44:13;;;;;;;0.40;0.40;;;;;;;;;;4907089;29;20205;-91
2023/11/04 12:47:37;;;;;;;0.53;0.50;;;;;;;;;;4906661;29;20229;-90
2023/11/04 12:50:41;;;;;;;0.80;0.50;;;;;;;;;;4895698;29;20193;-89
2023/11/04 12:53:45;;;;;;;0.40;0.40;;;;;;;;;;4907050;29;20193;-89
2023/11/04 12:56:49;;;;;;;0.50;0.50;;;;;;;;;;4906285;29;20216;-88
2023/11/04 12:59:56;;;;;;;3.27;0.50;;;;;;;;;;4895586;29;20208;-88
2023/11/04 13:03:00;;;;;;;1.00;0.50;;;;;;;;;;4906854;29;20639;-90
2023/11/04 13:06:04;;;;;;;0.43;0.40;;;;;;;;;;4907046;29;20217;-90
2023/11/04 13:09:09;;;;;;;0.40;0.40;;;;;;;;;;4897750;29;20185;-91
2023/11/04 13:12:13;;;;;;;1.07;0.50;;;;;;;;;;4896447;29;20184;-91
2023/11/04 13:15:18;;;;;;;0.50;0.50;;;;;;;;;;4906628;29;20184;-91
2023/11/04 13:18:22;;;;;;;0.70;0.50;;;;;;;;;;4906615;29;20189;-91
2023/11/04 13:21:27;;;;;;;0.80;0.67;;;;;;;;;;4917380;29;20181;-90
2023/11/04 13:24:31;;;;;;;0.60;0.60;;;;;;;;;;4917629;29;20197;-91
2023/11/04 13:27:36;;;;;;;0.97;0.50;;;;;;;;;;4906648;29;20232;-91
2023/11/04 13:30:40;;;;;;;0.57;0.50;;;;;;;;;;4907018;29;20571;-91
2023/11/04 13:33:44;;;;;;;1.70;0.60;;;;;;;;;;4916994;29;20188;-90
2023/11/04 13:36:48;;;;;;;0.93;0.70;;;;;;;;;;4894216;29;20224;-90
2023/11/04 13:39:52;;;;;;;1.03;0.60;;;;;;;;;;4905991;29;20212;-90
2023/11/04 13:42:56;;;;;;;1.10;0.63;;;;;;;;;;4905788;29;20193;-90
2023/11/04 13:46:00;;;;;;;0.70;0.53;;;;;;;;;;4905639;29;20220;-90
2023/11/04 13:49:04;;;;;;;0.70;0.60;;;;;;;;;;4905957;29;20185;-89
2023/11/04 13:52:09;;;;;;;1.23;0.60;;;;;;;;;;4905904;29;20189;-89
2023/11/04 13:55:15;;;;;;;2.63;0.80;;;;;;;;;;4905984;29;20189;-89
2023/11/04 13:58:19;;;;;;;2.20;0.90;;;;;;;;;;4905987;29;20193;-89
2023/11/04 14:01:24;;;;;;;2.40;0.90;;;;;;;;;;4905671;29;20205;-89
2023/11/04 14:04:28;;;;;;;1.80;0.93;;;;;;;;;;4916444;29;20539;-89
2023/11/04 14:07:32;;;;;;;1.10;0.97;;;;;;;;;;4895010;29;20224;-89
2023/11/04 14:10:36;;;;;;;1.40;1.00;;;;;;;;;;4910016;29;20181;-89
2023/11/04 14:13:41;;;;;;;1.10;0.90;;;;;;;;;;4896685;29;20189;-89
2023/11/04 14:16:44;;;;;;;2.50;0.90;;;;;;;;;;4905597;29;20225;-89
2023/11/04 14:19:48;;;;;;;1.10;1.00;;;;;;;;;;4905405;29;20216;-89
2023/11/04 14:22:53;;;;;;;2.17;1.00;;;;;;;;;;4905660;29;20185;-89
2023/11/04 14:25:57;;;;;;;2.67;0.90;;;;;;;;;;4916503;29;20185;-89
2023/11/04 14:29:01;;;;;;;2.23;0.80;;;;;;;;;;4916205;29;20212;-89
2023/11/04 14:32:06;;;;;;;0.83;0.70;;;;;;;;;;4894580;29;20189;-88
2023/11/04 14:35:11;;;;;;;0.93;0.80;;;;;;;;;;4905289;29;20189;-89
2023/11/04 14:38:16;;;;;;;0.70;0.70;;;;;;;;;;4905357;29;20181;-88
2023/11/04 14:41:21;;;;;;;1.30;0.80;;;;;;;;;;4905476;29;20217;-89
2023/11/04 14:44:25;;;;;;;0.93;0.77;;;;;;;;;;4905348;29;20193;-88
2023/11/04 14:47:29;;;;;;;1.10;0.80;;;;;;;;;;4917463;29;20713;-87
2023/11/04 14:50:35;;;;;;;0.70;0.60;;;;;;;;;;4908892;29;20642;-87
2023/11/04 14:53:42;;;;;;;3.50;0.90;;;;;;;;;;4919606;29;20193;-87
2023/11/04 14:56:47;;;;;;;1.20;0.70;;;;;;;;;;4898028;29;20229;-87
2023/11/04 14:59:50;;;;;;;1.53;0.70;;;;;;;;;;4908753;29;20212;-87
2023/11/04 15:02:55;;;;;;;1.93;0.80;;;;;;;;;;4898307;29;20671;-87
2023/11/04 15:05:59;;;;;;;0.93;0.80;;;;;;;;;;4909146;29;20221;-87
2023/11/04 15:09:05;;;;;;;1.17;0.90;;;;;;;;;;4909193;29;20181;-87
2023/11/04 15:12:10;;;;;;;1.47;0.80;;;;;;;;;;4897896;29;20177;-88
2023/11/04 15:15:14;;;;;;;1.13;0.83;;;;;;;;;;4897388;29;20193;-87
2023/11/04 15:18:18;;;;;;;1.60;0.80;;;;;;;;;;4897855;29;20192;-87
2023/11/04 15:21:25;;;;;;;1.40;0.80;;;;;;;;;;4897393;29;20221;-87
2023/11/04 15:24:29;;;;;;;1.73;1.20;;;;;;;;;;4886723;29;20189;-87
2023/11/04 15:27:34;;;;;;;1.20;1.07;;;;;;;;;;4897387;29;20224;-87
2023/11/04 15:30:38;;;;;;;1.43;1.00;;;;;;;;;;4909552;29;20209;-89
2023/11/04 15:33:43;;;;;;;1.30;0.90;;;;;;;;;;4909244;29;20193;-88
2023/11/04 15:36:47;;;;;;;0.90;0.80;;;;;;;;;;4898883;29;20216;-89
2023/11/04 15:39:51;;;;;;;1.13;0.93;;;;;;;;;;4898699;29;20188;-89
2023/11/04 15:42:56;;;;;;;2.87;1.13;;;;;;;;;;4898598;29;20197;-89
2023/11/04 15:46:01;;;;;;;3.83;1.10;;;;;;;;;;4913837;29;20224;-89
2023/11/04 15:49:04;;;;;;;1.03;0.80;;;;;;;;;;4907631;29;20184;-89
2023/11/04 15:52:10;;;;;;;0.80;0.80;;;;;;;;;;4907631;29;20185;-89
2023/11/04 15:55:14;;;;;;;1.40;0.80;;;;;;;;;;4897080;29;20532;-89
2023/11/04 15:58:18;;;;;;;1.87;1.30;;;;;;;;;;4906753;29;20185;-89
2023/11/04 16:01:22;;;;;;;2.63;1.10;;;;;;;;;;4907473;29;20209;-89
2023/11/04 16:04:26;;;;;;;0.70;0.70;;;;;;;;;;4896764;29;20189;-89
2023/11/04 16:07:31;;;;;;;1.47;0.90;;;;;;;;;;4907172;29;20597;-89
2023/11/04 16:10:34;;;;;;;1.53;0.80;;;;;;;;;;4907098;29;20192;-89
2023/11/04 16:13:39;;;;;;;0.90;0.70;;;;;;;;;;4896607;29;20188;-89
2023/11/04 16:16:43;;;;;;;3.40;0.93;;;;;;;;;;4896452;29;20220;-89
2023/11/04 16:19:47;;;;;;;0.87;0.70;;;;;;;;;;4907208;29;20252;-89
2023/11/04 16:22:52;;;;;;;0.90;0.60;;;;;;;;;;4907002;29;20176;-89
2023/11/04 16:25:57;;;;;;;1.70;0.70;;;;;;;;;;4907094;29;20189;-88
2023/11/04 16:29:01;;;;;;;0.60;0.60;;;;;;;;;;4906974;29;20210;-89
2023/11/04 16:32:05;;;;;;;1.37;0.80;;;;;;;;;;4908610;29;20554;-88
2023/11/04 16:35:10;;;;;;;0.70;0.60;;;;;;;;;;4907720;29;20189;-89
2023/11/04 16:38:14;;;;;;;2.97;0.83;;;;;;;;;;4907765;29;20192;-89
2023/11/04 16:41:18;;;;;;;0.87;0.80;;;;;;;;;;4918932;29;20552;-89
2023/11/04 16:44:22;;;;;;;1.20;0.70;;;;;;;;;;4898174;29;20192;-90
2023/11/04 16:47:27;;;;;;;1.63;0.80;;;;;;;;;;4918820;29;20216;-89
2023/11/04 16:50:31;;;;;;;1.73;0.83;;;;;;;;;;4907900;29;20185;-88
2023/11/04 16:53:35;;;;;;;0.90;0.60;;;;;;;;;;4917596;29;20189;-89
2023/11/04 16:56:40;;;;;;;0.90;0.70;;;;;;;;;;4906378;29;20224;-89
2023/11/04 16:59:44;;;;;;;1.10;0.80;;;;;;;;;;4895787;29;20583;-89
2023/11/04 17:02:48;;;;;;;1.93;0.80;;;;;;;;;;4884996;29;20181;-89
2023/11/04 17:05:52;;;;;;;1.60;0.80;;;;;;;;;;4906348;29;20189;-89
2023/11/04 17:08:56;;;;;;;6.60;1.10;;;;;;;;;;4895535;29;20193;-88
2023/11/04 17:12:01;;;;;;;1.47;1.00;;;;;;;;;;4885150;29;20181;-89
2023/11/04 17:15:05;;;;;;;3.43;1.37;;;;;;;;;;4895330;29;20189;-88
2023/11/04 17:18:09;;;;;;;2.60;1.37;;;;;;;;;;4906324;29;20193;-89
2023/11/04 17:21:14;;;;;;;1.90;1.20;;;;;;;;;;4895498;29;20208;-88
2023/11/04 17:24:18;;;;;;;2.07;1.30;;;;;;;;;;4910201;29;20188;-89
2023/11/04 17:27:22;;;;;;;2.37;1.27;;;;;;;;;;4911826;29;20224;-88
2023/11/04 17:30:26;;;;;;;1.70;1.40;;;;;;;;;;4906263;29;20682;-89
2023/11/04 17:33:30;;;;;;;2.20;1.30;;;;;;;;;;4906150;29;20189;-89
2023/11/04 17:36:34;;;;;;;3.70;1.07;;;;;;;;;;4894800;29;20228;-89
2023/11/04 17:39:38;;;;;;;2.30;1.27;;;;;;;;;;4905381;29;20189;-89
2023/11/04 17:42:43;;;;;;;2.47;1.00;;;;;;;;;;4894941;29;20188;-89
2023/11/04 17:45:50;;;;;;;2.70;1.07;;;;;;;;;;4905788;29;20209;-89
2023/11/04 17:48:54;;;;;;;2.13;1.03;;;;;;;;;;4905916;29;20185;-88
2023/11/04 17:51:59;;;;;;;4.47;0.87;;;;;;;;;;4895526;29;20196;-89
2023/11/04 17:55:03;;;;;;;2.43;1.10;;;;;;;;;;4905843;29;20189;-89
2023/11/04 17:58:08;;;;;;;2.70;1.23;;;;;;;;;;4905639;29;20189;-89
2023/11/04 18:01:12;;;;;;;2.13;1.10;;;;;;;;;;4905689;29;20217;-89
2023/11/04 18:04:16;;;;;;;2.03;1.00;;;;;;;;;;4905386;29;20193;-89
2023/11/04 18:07:23;;;;;;;3.13;0.87;;;;;;;;;;4905800;29;20229;-89
2023/11/04 18:10:26;;;;;;;2.27;1.03;;;;;;;;;;4905703;29;20189;-89
2023/11/04 18:13:30;;;;;;;1.70;1.13;;;;;;;;;;4905621;29;20210;-89
2023/11/04 18:16:35;;;;;;;1.20;0.90;;;;;;;;;;4905993;29;20702;-89
2023/11/04 18:19:42;;;;;;;1.93;1.20;;;;;;;;;;4894965;29;20185;-89
2023/11/04 18:22:46;;;;;;;1.97;1.30;;;;;;;;;;4907468;29;20220;-88
2023/11/04 18:25:50;;;;;;;1.87;1.30;;;;;;;;;;4909085;29;20188;-89
2023/11/04 18:28:54;;;;;;;1.60;1.20;;;;;;;;;;4909109;29;20201;-89
2023/11/04 18:31:58;;;;;;;3.90;1.10;;;;;;;;;;4909472;29;20550;-88
2023/11/04 18:35:03;;;;;;;2.33;1.20;;;;;;;;;;4909164;29;20182;-89
2023/11/04 18:38:08;;;;;;;3.07;1.40;;;;;;;;;;4920091;29;20189;-88
2023/11/04 18:41:16;;;;;;;2.23;1.20;;;;;;;;;;4898130;29;20212;-88
2023/11/04 18:44:20;;;;;;;1.93;1.13;;;;;;;;;;4898386;29;20213;-88
2023/11/04 18:47:26;;;;;;;1.00;0.80;;;;;;;;;;4908814;29;20232;-88
2023/11/04 18:50:31;;;;;;;1.43;0.93;;;;;;;;;;4897941;29;20185;-88
2023/11/04 18:53:35;;;;;;;1.77;0.90;;;;;;;;;;4897992;29;20535;-88
2023/11/04 18:56:40;;;;;;;2.03;1.17;;;;;;;;;;4908522;29;20224;-89
2023/11/04 18:59:44;;;;;;;1.50;1.10;;;;;;;;;;4908658;29;20188;-89
2023/11/04 19:02:48;;;;;;;1.70;0.80;;;;;;;;;;4908782;29;20698;-88
2023/11/04 19:05:52;;;;;;;1.97;1.17;;;;;;;;;;4897339;29;20682;-89
2023/11/04 19:08:56;;;;;;;1.23;1.00;;;;;;;;;;4908871;29;20655;-88
2023/11/04 19:12:00;;;;;;;1.73;1.20;;;;;;;;;;4908489;29;20181;-89
2023/11/04 19:15:05;;;;;;;1.27;1.10;;;;;;;;;;4897512;29;20185;-88
2023/11/04 19:18:09;;;;;;;1.13;0.93;;;;;;;;;;4919006;29;20181;-89
2023/11/04 19:21:14;;;;;;;1.93;1.13;;;;;;;;;;4908252;29;20213;-88
2023/11/04 19:24:18;;;;;;;1.00;0.90;;;;;;;;;;4908221;29;20192;-88
2023/11/04 19:27:22;;;;;;;1.10;0.80;;;;;;;;;;4908101;29;20220;-88
2023/11/04 19:30:28;;;;;;;1.73;1.00;;;;;;;;;;4897155;29;20209;-89
2023/11/04 19:33:33;;;;;;;2.17;1.00;;;;;;;;;;4897083;29;20189;-89
2023/11/04 19:36:37;;;;;;;1.77;0.90;;;;;;;;;;4908034;29;20229;-88
2023/11/04 19:39:41;;;;;;;1.70;1.00;;;;;;;;;;4908062;29;20185;-88
2023/11/04 19:42:46;;;;;;;3.40;0.97;;;;;;;;;;4907733;29;20222;-88
2023/11/04 19:45:50;;;;;;;1.40;1.03;;;;;;;;;;4897249;29;20193;-88